sensor_id;sensor_type;location;lat;lon;timestamp;P1;durP1;ratioP1;P2;durP2;ratioP2
30872;SDS011;17579;42.690;2.586;2024-01-07T00:01:26;1.85;;;0.82;;
30872;SDS011;17579;42.690;2.586;2024-01-07T00:04:00;0.85;;;0.80;;
30872;SDS011;17579;42.690;2.586;2024-01-07T00:06:46;1.42;;;0.80;;
30872;SDS011;17579;42.690;2.586;2024-01-07T00:09:15;1.13;;;1.00;;
30872;SDS011;17579;42.690;2.586;2024-01-07T00:11:44;0.80;;;0.80;;
30872;SDS011;17579;42.690;2.586;2024-01-07T00:14:15;2.08;;;0.93;;
30872;SDS011;17579;42.690;2.586;2024-01-07T00:16:42;1.55;;;0.90;;
30872;SDS011;17579;42.690;2.586;2024-01-07T00:19:11;1.13;;;0.98;;
30872;SDS011;17579;42.690;2.586;2024-01-07T00:21:45;0.88;;;0.70;;
30872;SDS011;17579;42.690;2.586;2024-01-07T00:24:21;0.80;;;0.80;;
30872;SDS011;17579;42.690;2.586;2024-01-07T00:26:46;1.35;;;0.80;;
30872;SDS011;17579;42.690;2.586;2024-01-07T00:29:32;0.95;;;0.90;;
30872;SDS011;17579;42.690;2.586;2024-01-07T00:32:03;1.75;;;1.08;;
30872;SDS011;17579;42.690;2.586;2024-01-07T00:34:31;1.20;;;1.00;;
30872;SDS011;17579;42.690;2.586;2024-01-07T00:37:02;1.27;;;1.10;;
30872;SDS011;17579;42.690;2.586;2024-01-07T00:39:28;2.22;;;1.20;;
30872;SDS011;17579;42.690;2.586;2024-01-07T00:41:54;1.35;;;0.95;;
30872;SDS011;17579;42.690;2.586;2024-01-07T00:44:22;2.55;;;1.25;;
30872;SDS011;17579;42.690;2.586;2024-01-07T00:46:48;1.65;;;1.20;;
30872;SDS011;17579;42.690;2.586;2024-01-07T00:52:11;1.52;;;1.10;;
30872;SDS011;17579;42.690;2.586;2024-01-07T00:54:52;2.05;;;0.90;;
30872;SDS011;17579;42.690;2.586;2024-01-07T00:57:22;1.35;;;0.63;;
30872;SDS011;17579;42.690;2.586;2024-01-07T00:59:51;0.63;;;0.60;;
30872;SDS011;17579;42.690;2.586;2024-01-07T01:02:33;3.70;;;0.52;;
30872;SDS011;17579;42.690;2.586;2024-01-07T01:05:04;0.70;;;0.70;;
30872;SDS011;17579;42.690;2.586;2024-01-07T01:07:32;0.68;;;0.60;;
30872;SDS011;17579;42.690;2.586;2024-01-07T01:12:49;0.50;;;0.50;;
30872;SDS011;17579;42.690;2.586;2024-01-07T01:15:17;1.65;;;1.10;;
30872;SDS011;17579;42.690;2.586;2024-01-07T01:17:58;0.60;;;0.60;;
30872;SDS011;17579;42.690;2.586;2024-01-07T01:20:24;0.70;;;0.55;;
30872;SDS011;17579;42.690;2.586;2024-01-07T01:22:49;0.40;;;0.40;;
30872;SDS011;17579;42.690;2.586;2024-01-07T01:25:15;0.70;;;0.70;;
30872;SDS011;17579;42.690;2.586;2024-01-07T01:28:01;0.60;;;0.60;;
30872;SDS011;17579;42.690;2.586;2024-01-07T01:30:35;0.55;;;0.55;;
30872;SDS011;17579;42.690;2.586;2024-01-07T01:33:01;0.70;;;0.70;;
30872;SDS011;17579;42.690;2.586;2024-01-07T01:35:27;0.98;;;0.98;;
30872;SDS011;17579;42.690;2.586;2024-01-07T01:37:52;1.08;;;0.90;;
30872;SDS011;17579;42.690;2.586;2024-01-07T01:40:21;1.08;;;1.00;;
30872;SDS011;17579;42.690;2.586;2024-01-07T01:42:46;0.77;;;0.77;;
30872;SDS011;17579;42.690;2.586;2024-01-07T01:45:32;1.48;;;0.80;;
30872;SDS011;17579;42.690;2.586;2024-01-07T01:47:58;0.70;;;0.70;;
30872;SDS011;17579;42.690;2.586;2024-01-07T01:50:44;0.80;;;0.77;;
30872;SDS011;17579;42.690;2.586;2024-01-07T01:53:38;1.20;;;1.10;;
30872;SDS011;17579;42.690;2.586;2024-01-07T01:56:04;1.20;;;1.10;;
30872;SDS011;17579;42.690;2.586;2024-01-07T01:58:30;1.67;;;1.20;;
30872;SDS011;17579;42.690;2.586;2024-01-07T02:00:58;1.48;;;1.38;;
30872;SDS011;17579;42.690;2.586;2024-01-07T02:03:28;1.63;;;1.52;;
30872;SDS011;17579;42.690;2.586;2024-01-07T02:08:41;1.45;;;1.30;;
30872;SDS011;17579;42.690;2.586;2024-01-07T02:11:22;1.38;;;1.27;;
30872;SDS011;17579;42.690;2.586;2024-01-07T02:13:48;1.52;;;1.42;;
30872;SDS011;17579;42.690;2.586;2024-01-07T02:16:14;1.48;;;1.38;;
30872;SDS011;17579;42.690;2.586;2024-01-07T02:18:41;1.30;;;1.20;;
30872;SDS011;17579;42.690;2.586;2024-01-07T02:21:10;1.33;;;1.27;;
30872;SDS011;17579;42.690;2.586;2024-01-07T02:23:58;1.40;;;1.30;;
30872;SDS011;17579;42.690;2.586;2024-01-07T02:26:32;1.52;;;1.42;;
30872;SDS011;17579;42.690;2.586;2024-01-07T02:28:58;1.50;;;1.40;;
30872;SDS011;17579;42.690;2.586;2024-01-07T02:31:26;1.88;;;1.67;;
30872;SDS011;17579;42.690;2.586;2024-01-07T02:33:54;1.75;;;1.65;;
30872;SDS011;17579;42.690;2.586;2024-01-07T02:39:05;2.38;;;1.45;;
30872;SDS011;17579;42.690;2.586;2024-01-07T02:41:46;1.95;;;1.75;;
30872;SDS011;17579;42.690;2.586;2024-01-07T02:44:35;1.63;;;1.48;;
30872;SDS011;17579;42.690;2.586;2024-01-07T02:47:03;1.85;;;1.70;;
30872;SDS011;17579;42.690;2.586;2024-01-07T02:49:31;1.98;;;1.60;;
30872;SDS011;17579;42.690;2.586;2024-01-07T02:51:57;1.50;;;1.40;;
30872;SDS011;17579;42.690;2.586;2024-01-07T02:54:23;1.65;;;1.55;;
30872;SDS011;17579;42.690;2.586;2024-01-07T02:59:34;1.85;;;1.70;;
30872;SDS011;17579;42.690;2.586;2024-01-07T03:02:00;1.95;;;1.52;;
30872;SDS011;17579;42.690;2.586;2024-01-07T03:04:26;2.10;;;1.77;;
30872;SDS011;17579;42.690;2.586;2024-01-07T03:06:51;1.95;;;1.75;;
30872;SDS011;17579;42.690;2.586;2024-01-07T03:09:17;1.83;;;1.73;;
30872;SDS011;17579;42.690;2.586;2024-01-07T03:11:43;1.73;;;1.30;;
30872;SDS011;17579;42.690;2.586;2024-01-07T03:14:14;1.20;;;1.10;;
30872;SDS011;17579;42.690;2.586;2024-01-07T03:16:51;1.42;;;1.33;;
30872;SDS011;17579;42.690;2.586;2024-01-07T03:19:24;1.40;;;1.00;;
30872;SDS011;17579;42.690;2.586;2024-01-07T03:21:50;1.33;;;1.00;;
30872;SDS011;17579;42.690;2.586;2024-01-07T03:24:19;0.90;;;0.90;;
30872;SDS011;17579;42.690;2.586;2024-01-07T03:26:47;0.80;;;0.80;;
30872;SDS011;17579;42.690;2.586;2024-01-07T03:29:13;1.08;;;0.90;;
30872;SDS011;17579;42.690;2.586;2024-01-07T03:31:50;0.80;;;0.80;;
30872;SDS011;17579;42.690;2.586;2024-01-07T03:34:24;1.20;;;1.10;;
30872;SDS011;17579;42.690;2.586;2024-01-07T03:36:50;0.95;;;0.93;;
30872;SDS011;17579;42.690;2.586;2024-01-07T03:39:21;1.40;;;0.88;;
30872;SDS011;17579;42.690;2.586;2024-01-07T03:44:36;1.08;;;1.05;;
30872;SDS011;17579;42.690;2.586;2024-01-07T03:47:17;1.40;;;1.30;;
30872;SDS011;17579;42.690;2.586;2024-01-07T03:49:43;1.20;;;1.08;;
30872;SDS011;17579;42.690;2.586;2024-01-07T03:52:11;1.10;;;1.08;;
30872;SDS011;17579;42.690;2.586;2024-01-07T03:54:36;1.23;;;1.13;;
30872;SDS011;17579;42.690;2.586;2024-01-07T03:57:02;1.50;;;1.20;;
30872;SDS011;17579;42.690;2.586;2024-01-07T03:59:31;1.33;;;1.23;;
30872;SDS011;17579;42.690;2.586;2024-01-07T04:01:57;1.10;;;1.10;;
30872;SDS011;17579;42.690;2.586;2024-01-07T04:04:23;1.30;;;1.20;;
30872;SDS011;17579;42.690;2.586;2024-01-07T04:06:48;3.63;;;1.30;;
30872;SDS011;17579;42.690;2.586;2024-01-07T04:09:14;1.75;;;1.30;;
30872;SDS011;17579;42.690;2.586;2024-01-07T04:11:40;1.40;;;1.30;;
30872;SDS011;17579;42.690;2.586;2024-01-07T04:14:07;1.65;;;1.20;;
30872;SDS011;17579;42.690;2.586;2024-01-07T04:16:33;1.15;;;1.10;;
30872;SDS011;17579;42.690;2.586;2024-01-07T04:19:01;1.20;;;1.10;;
30872;SDS011;17579;42.690;2.586;2024-01-07T04:21:27;1.70;;;1.40;;
30872;SDS011;17579;42.690;2.586;2024-01-07T04:23:53;1.27;;;1.17;;
30872;SDS011;17579;42.690;2.586;2024-01-07T04:26:18;1.42;;;1.33;;
30872;SDS011;17579;42.690;2.586;2024-01-07T04:28:49;1.60;;;1.45;;
30872;SDS011;17579;42.690;2.586;2024-01-07T04:31:15;1.55;;;1.45;;
30872;SDS011;17579;42.690;2.586;2024-01-07T04:33:49;1.65;;;1.30;;
30872;SDS011;17579;42.690;2.586;2024-01-07T04:36:15;1.80;;;1.40;;
30872;SDS011;17579;42.690;2.586;2024-01-07T04:38:41;2.10;;;1.40;;
30872;SDS011;17579;42.690;2.586;2024-01-07T04:41:15;1.42;;;1.33;;
30872;SDS011;17579;42.690;2.586;2024-01-07T04:43:44;1.35;;;1.10;;
30872;SDS011;17579;42.690;2.586;2024-01-07T04:46:18;1.05;;;1.00;;
30872;SDS011;17579;42.690;2.586;2024-01-07T04:48:43;0.77;;;0.77;;
30872;SDS011;17579;42.690;2.586;2024-01-07T04:51:11;0.70;;;0.70;;
30872;SDS011;17579;42.690;2.586;2024-01-07T04:53:39;1.30;;;0.50;;
30872;SDS011;17579;42.690;2.586;2024-01-07T04:56:05;0.60;;;0.60;;
30872;SDS011;17579;42.690;2.586;2024-01-07T04:58:31;0.77;;;0.70;;
30872;SDS011;17579;42.690;2.586;2024-01-07T05:01:02;0.60;;;0.60;;
30872;SDS011;17579;42.690;2.586;2024-01-07T05:03:37;0.60;;;0.60;;
30872;SDS011;17579;42.690;2.586;2024-01-07T05:06:03;1.55;;;0.50;;
30872;SDS011;17579;42.690;2.586;2024-01-07T05:08:29;2.17;;;0.50;;
30872;SDS011;17579;42.690;2.586;2024-01-07T05:11:03;0.20;;;0.20;;
30872;SDS011;17579;42.690;2.586;2024-01-07T05:13:30;0.17;;;0.17;;
30872;SDS011;17579;42.690;2.586;2024-01-07T05:18:45;0.20;;;0.20;;
30872;SDS011;17579;42.690;2.586;2024-01-07T05:21:14;0.20;;;0.20;;
30872;SDS011;17579;42.690;2.586;2024-01-07T05:24:00;0.40;;;0.40;;
30872;SDS011;17579;42.690;2.586;2024-01-07T05:26:38;0.88;;;0.50;;
30872;SDS011;17579;42.690;2.586;2024-01-07T05:29:07;0.50;;;0.50;;
30872;SDS011;17579;42.690;2.586;2024-01-07T05:31:33;0.57;;;0.57;;
30872;SDS011;17579;42.690;2.586;2024-01-07T05:34:01;0.60;;;0.60;;
30872;SDS011;17579;42.690;2.586;2024-01-07T05:36:36;0.98;;;0.57;;
30872;SDS011;17579;42.690;2.586;2024-01-07T05:39:02;0.57;;;0.57;;
30872;SDS011;17579;42.690;2.586;2024-01-07T05:41:29;0.85;;;0.85;;
30872;SDS011;17579;42.690;2.586;2024-01-07T05:43:55;0.60;;;0.60;;
30872;SDS011;17579;42.690;2.586;2024-01-07T05:46:34;0.90;;;0.90;;
30872;SDS011;17579;42.690;2.586;2024-01-07T05:49:03;0.70;;;0.70;;
30872;SDS011;17579;42.690;2.586;2024-01-07T05:51:28;0.88;;;0.85;;
30872;SDS011;17579;42.690;2.586;2024-01-07T05:54:06;0.85;;;0.70;;
30872;SDS011;17579;42.690;2.586;2024-01-07T05:56:31;1.30;;;1.00;;
30872;SDS011;17579;42.690;2.586;2024-01-07T05:59:04;1.27;;;1.10;;
30872;SDS011;17579;42.690;2.586;2024-01-07T06:01:29;1.58;;;1.33;;
30872;SDS011;17579;42.690;2.586;2024-01-07T06:03:55;1.52;;;1.40;;
30872;SDS011;17579;42.690;2.586;2024-01-07T06:06:24;1.55;;;1.27;;
30872;SDS011;17579;42.690;2.586;2024-01-07T06:08:53;1.40;;;1.25;;
30872;SDS011;17579;42.690;2.586;2024-01-07T06:11:21;2.35;;;1.25;;
30872;SDS011;17579;42.690;2.586;2024-01-07T06:13:50;1.38;;;1.20;;
30872;SDS011;17579;42.690;2.586;2024-01-07T06:16:16;1.60;;;1.05;;
30872;SDS011;17579;42.690;2.586;2024-01-07T06:18:42;1.50;;;1.02;;
30872;SDS011;17579;42.690;2.586;2024-01-07T06:21:07;1.73;;;1.13;;
30872;SDS011;17579;42.690;2.586;2024-01-07T06:23:33;1.25;;;1.10;;
30872;SDS011;17579;42.690;2.586;2024-01-07T06:25:58;1.10;;;1.10;;
30872;SDS011;17579;42.690;2.586;2024-01-07T06:28:24;1.40;;;1.30;;
30872;SDS011;17579;42.690;2.586;2024-01-07T06:30:50;1.20;;;1.10;;
30872;SDS011;17579;42.690;2.586;2024-01-07T06:33:16;1.58;;;1.48;;
30872;SDS011;17579;42.690;2.586;2024-01-07T06:35:44;1.30;;;1.20;;
30872;SDS011;17579;42.690;2.586;2024-01-07T06:38:10;1.55;;;0.98;;
30872;SDS011;17579;42.690;2.586;2024-01-07T06:40:38;1.10;;;1.00;;
30872;SDS011;17579;42.690;2.586;2024-01-07T06:43:09;1.08;;;1.00;;
30872;SDS011;17579;42.690;2.586;2024-01-07T06:45:39;1.20;;;1.10;;
30872;SDS011;17579;42.690;2.586;2024-01-07T06:48:05;0.90;;;0.90;;
30872;SDS011;17579;42.690;2.586;2024-01-07T06:50:31;0.90;;;0.90;;
30872;SDS011;17579;42.690;2.586;2024-01-07T06:52:57;1.67;;;1.00;;
30872;SDS011;17579;42.690;2.586;2024-01-07T06:55:23;0.88;;;0.82;;
30872;SDS011;17579;42.690;2.586;2024-01-07T06:57:48;0.70;;;0.70;;
30872;SDS011;17579;42.690;2.586;2024-01-07T07:00:14;0.80;;;0.80;;
30872;SDS011;17579;42.690;2.586;2024-01-07T07:02:40;1.38;;;0.80;;
30872;SDS011;17579;42.690;2.586;2024-01-07T07:05:06;0.80;;;0.77;;
30872;SDS011;17579;42.690;2.586;2024-01-07T07:10:19;0.80;;;0.63;;
30872;SDS011;17579;42.690;2.586;2024-01-07T07:12:45;0.70;;;0.70;;
30872;SDS011;17579;42.690;2.586;2024-01-07T07:15:15;0.70;;;0.70;;
30872;SDS011;17579;42.690;2.586;2024-01-07T07:17:41;0.55;;;0.55;;
30872;SDS011;17579;42.690;2.586;2024-01-07T07:20:15;0.70;;;0.70;;
30872;SDS011;17579;42.690;2.586;2024-01-07T07:22:44;0.65;;;0.65;;
30872;SDS011;17579;42.690;2.586;2024-01-07T07:25:12;0.70;;;0.70;;
30872;SDS011;17579;42.690;2.586;2024-01-07T07:27:42;0.98;;;0.68;;
30872;SDS011;17579;42.690;2.586;2024-01-07T07:30:08;1.25;;;0.80;;
30872;SDS011;17579;42.690;2.586;2024-01-07T07:32:40;1.00;;;0.70;;
30872;SDS011;17579;42.690;2.586;2024-01-07T07:35:15;0.57;;;0.57;;
30872;SDS011;17579;42.690;2.586;2024-01-07T07:37:41;0.60;;;0.60;;
30872;SDS011;17579;42.690;2.586;2024-01-07T07:40:15;0.70;;;0.70;;
30872;SDS011;17579;42.690;2.586;2024-01-07T07:42:43;0.65;;;0.65;;
30872;SDS011;17579;42.690;2.586;2024-01-07T07:45:09;1.17;;;0.70;;
30872;SDS011;17579;42.690;2.586;2024-01-07T07:47:35;0.82;;;0.80;;
30872;SDS011;17579;42.690;2.586;2024-01-07T07:50:08;0.68;;;0.68;;
30872;SDS011;17579;42.690;2.586;2024-01-07T07:52:35;0.80;;;0.80;;
30872;SDS011;17579;42.690;2.586;2024-01-07T07:55:06;1.80;;;0.90;;
30872;SDS011;17579;42.690;2.586;2024-01-07T07:57:35;0.73;;;0.73;;
30872;SDS011;17579;42.690;2.586;2024-01-07T08:00:05;0.98;;;0.88;;
30872;SDS011;17579;42.690;2.586;2024-01-07T08:02:32;0.50;;;0.50;;
30872;SDS011;17579;42.690;2.586;2024-01-07T08:04:57;1.20;;;0.60;;
30872;SDS011;17579;42.690;2.586;2024-01-07T08:07:23;0.85;;;0.80;;
30872;SDS011;17579;42.690;2.586;2024-01-07T08:09:49;0.70;;;0.70;;
30872;SDS011;17579;42.690;2.586;2024-01-07T08:12:18;0.80;;;0.80;;
30872;SDS011;17579;42.690;2.586;2024-01-07T08:14:44;1.20;;;0.60;;
30872;SDS011;17579;42.690;2.586;2024-01-07T08:17:15;0.85;;;0.85;;
30872;SDS011;17579;42.690;2.586;2024-01-07T08:19:41;0.63;;;0.63;;
30872;SDS011;17579;42.690;2.586;2024-01-07T08:22:10;1.27;;;0.80;;
30872;SDS011;17579;42.690;2.586;2024-01-07T08:24:39;0.70;;;0.70;;
30872;SDS011;17579;42.690;2.586;2024-01-07T08:27:07;0.82;;;0.75;;
30872;SDS011;17579;42.690;2.586;2024-01-07T08:29:39;1.02;;;0.80;;
30872;SDS011;17579;42.690;2.586;2024-01-07T08:32:12;0.75;;;0.75;;
30872;SDS011;17579;42.690;2.586;2024-01-07T08:34:39;0.75;;;0.70;;
30872;SDS011;17579;42.690;2.586;2024-01-07T08:37:06;0.93;;;0.93;;
30872;SDS011;17579;42.690;2.586;2024-01-07T08:39:32;0.80;;;0.70;;
30872;SDS011;17579;42.690;2.586;2024-01-07T08:41:58;0.85;;;0.85;;
30872;SDS011;17579;42.690;2.586;2024-01-07T08:44:29;1.23;;;0.77;;
30872;SDS011;17579;42.690;2.586;2024-01-07T08:46:55;0.60;;;0.60;;
30872;SDS011;17579;42.690;2.586;2024-01-07T08:49:21;0.85;;;0.60;;
30872;SDS011;17579;42.690;2.586;2024-01-07T08:51:46;0.45;;;0.45;;
30872;SDS011;17579;42.690;2.586;2024-01-07T08:54:17;0.70;;;0.70;;
30872;SDS011;17579;42.690;2.586;2024-01-07T08:56:45;1.00;;;0.80;;
30872;SDS011;17579;42.690;2.586;2024-01-07T08:59:13;0.60;;;0.60;;
30872;SDS011;17579;42.690;2.586;2024-01-07T09:01:39;0.85;;;0.80;;
30872;SDS011;17579;42.690;2.586;2024-01-07T09:04:04;0.73;;;0.60;;
30872;SDS011;17579;42.690;2.586;2024-01-07T09:06:30;0.57;;;0.57;;
30872;SDS011;17579;42.690;2.586;2024-01-07T09:09:05;1.88;;;0.80;;
30872;SDS011;17579;42.690;2.586;2024-01-07T09:11:34;0.70;;;0.70;;
30872;SDS011;17579;42.690;2.586;2024-01-07T09:14:04;0.80;;;0.80;;
30872;SDS011;17579;42.690;2.586;2024-01-07T09:19:16;0.85;;;0.80;;
30872;SDS011;17579;42.690;2.586;2024-01-07T09:21:42;0.98;;;0.88;;
30872;SDS011;17579;42.690;2.586;2024-01-07T09:24:24;1.02;;;0.80;;
30872;SDS011;17579;42.690;2.586;2024-01-07T09:26:58;0.73;;;0.73;;
30872;SDS011;17579;42.690;2.586;2024-01-07T09:29:24;2.15;;;0.85;;
30872;SDS011;17579;42.690;2.586;2024-01-07T09:31:55;1.23;;;0.80;;
30872;SDS011;17579;42.690;2.586;2024-01-07T09:34:23;0.50;;;0.50;;
30872;SDS011;17579;42.690;2.586;2024-01-07T09:36:49;0.68;;;0.63;;
30872;SDS011;17579;42.690;2.586;2024-01-07T09:39:22;1.02;;;0.80;;
30872;SDS011;17579;42.690;2.586;2024-01-07T09:42:01;0.95;;;0.60;;
30872;SDS011;17579;42.690;2.586;2024-01-07T09:44:30;0.60;;;0.60;;
30872;SDS011;17579;42.690;2.586;2024-01-07T09:47:07;1.83;;;0.60;;
30872;SDS011;17579;42.690;2.586;2024-01-07T09:49:39;1.00;;;0.60;;
30872;SDS011;17579;42.690;2.586;2024-01-07T09:55:00;0.63;;;0.63;;
30872;SDS011;17579;42.690;2.586;2024-01-07T09:57:34;0.70;;;0.70;;
30872;SDS011;17579;42.690;2.586;2024-01-07T10:00:06;0.75;;;0.55;;
30872;SDS011;17579;42.690;2.586;2024-01-07T10:02:35;0.50;;;0.50;;
30872;SDS011;17579;42.690;2.586;2024-01-07T10:05:01;1.65;;;0.50;;
30872;SDS011;17579;42.690;2.586;2024-01-07T10:07:40;0.82;;;0.82;;
30872;SDS011;17579;42.690;2.586;2024-01-07T10:10:13;0.40;;;0.40;;
30872;SDS011;17579;42.690;2.586;2024-01-07T10:12:43;0.50;;;0.50;;
30872;SDS011;17579;42.690;2.586;2024-01-07T10:15:11;0.85;;;0.30;;
30872;SDS011;17579;42.690;2.586;2024-01-07T10:17:41;0.70;;;0.20;;
30872;SDS011;17579;42.690;2.586;2024-01-07T10:20:08;0.52;;;0.28;;
30872;SDS011;17579;42.690;2.586;2024-01-07T10:25:12;0.30;;;0.30;;
30872;SDS011;17579;42.690;2.586;2024-01-07T10:27:42;0.30;;;0.30;;
30872;SDS011;17579;42.690;2.586;2024-01-07T10:30:19;0.50;;;0.43;;
30872;SDS011;17579;42.690;2.586;2024-01-07T10:32:47;0.63;;;0.40;;
30872;SDS011;17579;42.690;2.586;2024-01-07T10:35:15;0.68;;;0.40;;
30872;SDS011;17579;42.690;2.586;2024-01-07T10:37:46;0.40;;;0.40;;
30872;SDS011;17579;42.690;2.586;2024-01-07T10:40:23;2.05;;;0.70;;
30872;SDS011;17579;42.690;2.586;2024-01-07T10:42:52;1.15;;;0.50;;
30872;SDS011;17579;42.690;2.586;2024-01-07T10:45:28;0.70;;;0.57;;
30872;SDS011;17579;42.690;2.586;2024-01-07T10:47:54;0.50;;;0.50;;
30872;SDS011;17579;42.690;2.586;2024-01-07T10:50:28;4.10;;;0.60;;
30872;SDS011;17579;42.690;2.586;2024-01-07T10:52:59;0.98;;;0.40;;
30872;SDS011;17579;42.690;2.586;2024-01-07T10:56:04;0.40;;;0.40;;
30872;SDS011;17579;42.690;2.586;2024-01-07T10:58:32;0.52;;;0.52;;
30872;SDS011;17579;42.690;2.586;2024-01-07T11:00:59;0.98;;;0.30;;
30872;SDS011;17579;42.690;2.586;2024-01-07T11:06:31;0.70;;;0.47;;
30872;SDS011;17579;42.690;2.586;2024-01-07T11:09:14;1.25;;;0.50;;
30872;SDS011;17579;42.690;2.586;2024-01-07T11:11:54;0.60;;;0.38;;
30872;SDS011;17579;42.690;2.586;2024-01-07T11:16:50;0.68;;;0.32;;
30872;SDS011;17579;42.690;2.586;2024-01-07T11:19:27;1.30;;;0.30;;
30872;SDS011;17579;42.690;2.586;2024-01-07T11:27:08;0.65;;;0.40;;
30872;SDS011;17579;42.690;2.586;2024-01-07T11:32:44;0.90;;;0.60;;
30872;SDS011;17579;42.690;2.586;2024-01-07T11:35:12;0.55;;;0.50;;
30872;SDS011;17579;42.690;2.586;2024-01-07T11:37:41;0.40;;;0.40;;
30872;SDS011;17579;42.690;2.586;2024-01-07T11:40:12;0.50;;;0.32;;
30872;SDS011;17579;42.690;2.586;2024-01-07T11:42:44;0.63;;;0.63;;
30872;SDS011;17579;42.690;2.586;2024-01-07T11:45:30;0.70;;;0.50;;
30872;SDS011;17579;42.690;2.586;2024-01-07T11:47:56;0.68;;;0.50;;
30872;SDS011;17579;42.690;2.586;2024-01-07T11:50:51;0.88;;;0.50;;
30872;SDS011;17579;42.690;2.586;2024-01-07T11:53:23;0.75;;;0.47;;
30872;SDS011;17579;42.690;2.586;2024-01-07T11:55:58;0.70;;;0.50;;
30872;SDS011;17579;42.690;2.586;2024-01-07T11:58:23;0.60;;;0.60;;
30872;SDS011;17579;42.690;2.586;2024-01-07T12:00:51;0.50;;;0.50;;
30872;SDS011;17579;42.690;2.586;2024-01-07T12:03:23;0.75;;;0.60;;
30872;SDS011;17579;42.690;2.586;2024-01-07T12:05:49;0.75;;;0.50;;
30872;SDS011;17579;42.690;2.586;2024-01-07T12:08:17;0.75;;;0.50;;
30872;SDS011;17579;42.690;2.586;2024-01-07T12:10:43;0.50;;;0.50;;
30872;SDS011;17579;42.690;2.586;2024-01-07T12:16:04;0.47;;;0.40;;
30872;SDS011;17579;42.690;2.586;2024-01-07T12:18:36;0.90;;;0.50;;
30872;SDS011;17579;42.690;2.586;2024-01-07T12:21:23;2.35;;;0.50;;
30872;SDS011;17579;42.690;2.586;2024-01-07T12:23:53;0.80;;;0.50;;
30872;SDS011;17579;42.690;2.586;2024-01-07T12:26:20;1.75;;;0.55;;
30872;SDS011;17579;42.690;2.586;2024-01-07T12:28:51;1.42;;;0.45;;
30872;SDS011;17579;42.690;2.586;2024-01-07T12:31:25;0.57;;;0.50;;
30872;SDS011;17579;42.690;2.586;2024-01-07T12:33:52;0.40;;;0.40;;
30872;SDS011;17579;42.690;2.586;2024-01-07T12:38:45;0.32;;;0.30;;
30872;SDS011;17579;42.690;2.586;2024-01-07T12:41:11;0.35;;;0.30;;
30872;SDS011;17579;42.690;2.586;2024-01-07T12:43:39;0.68;;;0.43;;
30872;SDS011;17579;42.690;2.586;2024-01-07T12:46:47;0.93;;;0.38;;
30872;SDS011;17579;42.690;2.586;2024-01-07T12:48:56;0.45;;;0.35;;
30872;SDS011;17579;42.690;2.586;2024-01-07T12:51:25;0.40;;;0.40;;
30872;SDS011;17579;42.690;2.586;2024-01-07T12:53:51;0.63;;;0.40;;
30872;SDS011;17579;42.690;2.586;2024-01-07T12:56:19;1.27;;;0.43;;
30872;SDS011;17579;42.690;2.586;2024-01-07T12:58:44;0.50;;;0.50;;
30872;SDS011;17579;42.690;2.586;2024-01-07T13:01:13;0.82;;;0.40;;
30872;SDS011;17579;42.690;2.586;2024-01-07T13:03:39;0.73;;;0.47;;
30872;SDS011;17579;42.690;2.586;2024-01-07T13:06:07;1.52;;;0.50;;
30872;SDS011;17579;42.690;2.586;2024-01-07T13:08:37;0.50;;;0.40;;
30872;SDS011;17579;42.690;2.586;2024-01-07T13:11:03;0.35;;;0.35;;
30872;SDS011;17579;42.690;2.586;2024-01-07T13:13:29;0.77;;;0.50;;
30872;SDS011;17579;42.690;2.586;2024-01-07T13:15:54;1.90;;;0.50;;
30872;SDS011;17579;42.690;2.586;2024-01-07T13:18:22;0.50;;;0.50;;
30872;SDS011;17579;42.690;2.586;2024-01-07T13:20:47;1.88;;;0.57;;
30872;SDS011;17579;42.690;2.586;2024-01-07T13:23:16;0.73;;;0.50;;
30872;SDS011;17579;42.690;2.586;2024-01-07T13:25:41;0.60;;;0.50;;
30872;SDS011;17579;42.690;2.586;2024-01-07T13:28:31;0.60;;;0.50;;
30872;SDS011;17579;42.690;2.586;2024-01-07T13:31:08;0.38;;;0.35;;
30872;SDS011;17579;42.690;2.586;2024-01-07T13:33:42;0.38;;;0.38;;
30872;SDS011;17579;42.690;2.586;2024-01-07T13:36:13;0.40;;;0.40;;
30872;SDS011;17579;42.690;2.586;2024-01-07T13:38:39;2.40;;;0.60;;
30872;SDS011;17579;42.690;2.586;2024-01-07T13:41:10;0.60;;;0.60;;
30872;SDS011;17579;42.690;2.586;2024-01-07T13:43:41;0.40;;;0.40;;
30872;SDS011;17579;42.690;2.586;2024-01-07T13:46:09;0.57;;;0.52;;
30872;SDS011;17579;42.690;2.586;2024-01-07T13:48:45;1.20;;;0.50;;
30872;SDS011;17579;42.690;2.586;2024-01-07T13:51:14;2.92;;;0.70;;
30872;SDS011;17579;42.690;2.586;2024-01-07T13:54:03;1.27;;;0.50;;
30872;SDS011;17579;42.690;2.586;2024-01-07T13:56:29;0.60;;;0.60;;
30872;SDS011;17579;42.690;2.586;2024-01-07T13:58:55;1.48;;;0.50;;
30872;SDS011;17579;42.690;2.586;2024-01-07T14:01:21;0.80;;;0.50;;
30872;SDS011;17579;42.690;2.586;2024-01-07T14:03:47;1.05;;;0.80;;
30872;SDS011;17579;42.690;2.586;2024-01-07T14:06:33;1.02;;;0.68;;
30872;SDS011;17579;42.690;2.586;2024-01-07T14:09:01;0.30;;;0.30;;
30872;SDS011;17579;42.690;2.586;2024-01-07T14:11:30;3.17;;;0.60;;
30872;SDS011;17579;42.690;2.586;2024-01-07T14:14:01;0.50;;;0.47;;
30872;SDS011;17579;42.690;2.586;2024-01-07T14:16:41;0.60;;;0.60;;
30872;SDS011;17579;42.690;2.586;2024-01-07T14:19:07;0.45;;;0.45;;
30872;SDS011;17579;42.690;2.586;2024-01-07T14:21:33;0.30;;;0.30;;
30872;SDS011;17579;42.690;2.586;2024-01-07T14:24:01;1.65;;;0.60;;
30872;SDS011;17579;42.690;2.586;2024-01-07T14:26:28;0.60;;;0.60;;
30872;SDS011;17579;42.690;2.586;2024-01-07T14:28:56;2.65;;;0.63;;
30872;SDS011;17579;42.690;2.586;2024-01-07T14:31:22;0.40;;;0.40;;
30872;SDS011;17579;42.690;2.586;2024-01-07T14:33:47;1.02;;;0.63;;
30872;SDS011;17579;42.690;2.586;2024-01-07T14:36:15;1.02;;;0.57;;
30872;SDS011;17579;42.690;2.586;2024-01-07T14:38:44;1.27;;;0.63;;
30872;SDS011;17579;42.690;2.586;2024-01-07T14:41:12;1.40;;;0.60;;
30872;SDS011;17579;42.690;2.586;2024-01-07T14:43:39;0.75;;;0.60;;
30872;SDS011;17579;42.690;2.586;2024-01-07T14:46:06;0.73;;;0.70;;
30872;SDS011;17579;42.690;2.586;2024-01-07T14:48:41;0.63;;;0.60;;
30872;SDS011;17579;42.690;2.586;2024-01-07T14:51:07;1.80;;;0.77;;
30872;SDS011;17579;42.690;2.586;2024-01-07T14:53:33;0.50;;;0.50;;
30872;SDS011;17579;42.690;2.586;2024-01-07T14:56:04;0.70;;;0.50;;
30872;SDS011;17579;42.690;2.586;2024-01-07T14:58:31;0.70;;;0.47;;
30872;SDS011;17579;42.690;2.586;2024-01-07T15:00:57;0.50;;;0.50;;
30872;SDS011;17579;42.690;2.586;2024-01-07T15:03:24;0.88;;;0.50;;
30872;SDS011;17579;42.690;2.586;2024-01-07T15:05:53;0.93;;;0.70;;
30872;SDS011;17579;42.690;2.586;2024-01-07T15:08:21;1.35;;;0.57;;
30872;SDS011;17579;42.690;2.586;2024-01-07T15:10:52;0.95;;;0.80;;
30872;SDS011;17579;42.690;2.586;2024-01-07T15:13:17;1.15;;;0.55;;
30872;SDS011;17579;42.690;2.586;2024-01-07T15:15:45;0.50;;;0.50;;
30872;SDS011;17579;42.690;2.586;2024-01-07T15:18:13;2.22;;;0.68;;
30872;SDS011;17579;42.690;2.586;2024-01-07T15:20:39;0.63;;;0.63;;
30872;SDS011;17579;42.690;2.586;2024-01-07T15:23:05;0.80;;;0.50;;
30872;SDS011;17579;42.690;2.586;2024-01-07T15:25:30;0.85;;;0.68;;
30872;SDS011;17579;42.690;2.586;2024-01-07T15:30:51;0.63;;;0.63;;
30872;SDS011;17579;42.690;2.586;2024-01-07T15:33:16;1.77;;;0.70;;
30872;SDS011;17579;42.690;2.586;2024-01-07T15:35:42;0.68;;;0.40;;
30872;SDS011;17579;42.690;2.586;2024-01-07T15:38:08;0.52;;;0.52;;
30872;SDS011;17579;42.690;2.586;2024-01-07T15:43:22;0.85;;;0.65;;
30872;SDS011;17579;42.690;2.586;2024-01-07T15:45:56;0.50;;;0.50;;
30872;SDS011;17579;42.690;2.586;2024-01-07T15:48:25;1.05;;;0.60;;
30872;SDS011;17579;42.690;2.586;2024-01-07T15:50:50;1.23;;;0.63;;
30872;SDS011;17579;42.690;2.586;2024-01-07T15:53:18;0.57;;;0.57;;
30872;SDS011;17579;42.690;2.586;2024-01-07T15:55:59;1.00;;;0.70;;
30872;SDS011;17579;42.690;2.586;2024-01-07T15:58:29;1.85;;;0.50;;